Time;durP1;ratioP1;P1;durP2;ratioP2;P2;SDS_P1;SDS_P2;PMS_P1;PMS_P2;Temp;Humidity;BMP_temperature;BMP_pressure;BME280_temperature;BME280_humidity;BME280_pressure;Samples;Min_cycle;Max_cycle;Signal;HPM_P1;HPM_P2
2023/03/29 00:02:18;;;;;;;16.70;4.87;;;;;;;-147.16;63.09;78562.75;5049447;23;20220;-66
2023/03/29 00:04:45;;;;;;;14.57;5.00;;;;;;;-147.16;63.38;78572.88;5054652;23;20213;-65
2023/03/29 00:07:13;;;;;;;14.27;5.60;;;;;;;-147.16;63.72;78574.88;5052529;23;20654;-65
2023/03/29 00:09:39;;;;;;;15.03;4.73;;;;;;;-147.16;63.92;78574.88;5052701;23;20208;-67
2023/03/29 00:12:06;;;;;;;15.80;5.37;;;;;;;-147.16;63.55;78566.78;5051571;23;20817;-65
2023/03/29 00:14:32;;;;;;;14.80;5.57;;;;;;;-147.16;63.14;78562.75;5056244;23;20200;-66
2023/03/29 00:16:59;;;;;;;15.17;5.20;;;;;;;-147.16;63.29;78583.00;5053762;23;20285;-66
2023/03/29 00:19:25;;;;;;;19.63;5.60;;;;;;;-147.16;63.65;78574.88;5061330;23;20210;-65
2023/03/29 00:21:52;;;;;;;16.17;5.63;;;;;;;-147.16;63.60;78576.91;5050191;23;20331;-66
2023/03/29 00:24:20;;;;;;;13.60;5.30;;;;;;;-147.16;63.70;78589.06;5046325;23;21567;-67
2023/03/29 00:26:47;;;;;;;18.70;5.53;;;;;;;-147.16;63.45;78578.94;5063389;23;21173;-65
2023/03/29 00:29:13;;;;;;;16.87;6.13;;;;;;;-147.16;63.72;78583.00;5045381;23;21873;-68
2023/03/29 00:31:40;;;;;;;17.93;5.80;;;;;;;-147.16;63.59;78587.03;5041772;23;22744;-66
2023/03/29 00:34:06;;;;;;;18.07;5.47;;;;;;;-147.16;63.46;78574.88;5036002;23;20559;-66
2023/03/29 00:36:33;;;;;;;12.03;5.00;;;;;;;-147.16;63.33;78574.88;5026327;23;20367;-65
2023/03/29 00:38:59;;;;;;;15.10;5.23;;;;;;;-147.16;63.07;78585.00;5045202;23;20349;-65
2023/03/29 00:41:26;;;;;;;15.60;5.27;;;;;;;-147.16;63.41;78595.16;5054221;23;20252;-66
2023/03/29 00:43:58;;;;;;;14.83;5.10;;;;;;;-147.16;63.39;78593.13;5027961;23;21115;-68
2023/03/29 00:46:26;;;;;;;15.83;5.63;;;;;;;-147.16;63.58;78591.09;5029211;23;20300;-66
2023/03/29 00:48:55;;;;;;;13.73;4.97;;;;;;;-147.16;63.47;78601.22;5025087;23;20227;-67
2023/03/29 00:51:24;;;;;;;14.30;5.20;;;;;;;-147.16;63.49;78595.16;5054294;23;20216;-66
2023/03/29 00:53:55;;;;;;;15.40;5.07;;;;;;;-147.16;63.27;78599.19;5047187;23;23107;-65
2023/03/29 00:56:28;;;;;;;12.80;4.50;;;;;;;-147.16;63.49;78611.34;5036326;23;20212;-66
2023/03/29 00:59:06;;;;;;;13.10;4.40;;;;;;;-147.16;63.51;78599.19;5058362;23;20208;-67
2023/03/29 01:01:40;;;;;;;12.47;4.33;;;;;;;-147.16;63.12;78603.25;5049182;23;20199;-66
2023/03/29 01:04:18;;;;;;;11.17;4.67;;;;;;;-147.16;63.14;78611.34;5056471;23;20613;-65
2023/03/29 01:06:58;;;;;;;13.63;4.87;;;;;;;-147.16;63.50;78625.53;5037214;23;20789;-64
2023/03/29 01:09:29;;;;;;;16.30;5.10;;;;;;;-147.16;63.58;78615.41;5059530;23;23687;-65
2023/03/29 01:11:58;;;;;;;18.07;4.93;;;;;;;-147.16;63.37;78615.41;5060127;23;20215;-67
2023/03/29 01:14:27;;;;;;;14.23;5.20;;;;;;;-147.16;63.15;78615.41;5041871;23;20247;-64
2023/03/29 01:16:54;;;;;;;15.70;5.27;;;;;;;-147.16;62.93;78607.28;5051786;23;20203;-66
2023/03/29 01:19:25;;;;;;;15.03;5.00;;;;;;;-147.16;63.15;78627.56;6073827;23;20217;-65
2023/03/29 01:22:05;;;;;;;16.43;4.90;;;;;;;-147.16;63.29;78623.50;5842996;23;22845;-64
2023/03/29 01:24:56;;;;;;;14.17;4.80;;;;;;;-147.16;63.03;78627.56;5062032;23;21378;-66
2023/03/29 01:27:50;;;;;;;16.07;5.17;;;;;;;-147.16;63.18;78631.59;5074171;23;20206;-65
2023/03/29 01:30:40;;;;;;;12.20;4.63;;;;;;;-147.16;63.13;78635.66;5060634;23;20263;-66
2023/03/29 01:33:13;;;;;;;14.00;5.03;;;;;;;-147.16;63.11;78629.56;5066312;23;20340;-66
2023/03/29 01:35:47;;;;;;;13.60;4.33;;;;;;;-147.16;63.06;78627.56;5049591;23;22169;-65
2023/03/29 01:38:18;;;;;;;11.90;4.80;;;;;;;-147.16;62.40;78627.56;5039242;23;21227;-67
2023/03/29 01:40:44;;;;;;;10.73;4.53;;;;;;;-147.16;62.43;78631.59;5054319;23;22745;-67
2023/03/29 01:43:11;;;;;;;12.33;4.47;;;;;;;-147.16;62.78;78639.72;5046731;23;20214;-65
2023/03/29 01:46:09;;;;;;;11.20;4.37;;;;;;;-147.16;62.58;78633.63;5038682;23;21182;-64
2023/03/29 01:48:55;;;;;;;15.77;5.20;;;;;;;-147.16;62.45;78639.72;5027553;23;26208;-65
2023/03/29 01:51:32;;;;;;;11.20;4.40;;;;;;;-147.16;61.83;78625.53;5033576;23;20204;-65
2023/03/29 01:54:21;;;;;;;13.83;5.03;;;;;;;-147.16;62.16;78619.44;5074221;23;20262;-68
2023/03/29 01:56:49;;;;;;;13.30;4.67;;;;;;;-147.16;62.21;78623.50;5057844;23;20414;-66
2023/03/29 01:59:19;;;;;;;18.50;4.97;;;;;;;-147.16;62.13;78627.56;5032109;23;20205;-65
2023/03/29 02:01:51;;;;;;;12.20;4.90;;;;;;;-147.16;62.23;78623.50;5026234;23;22317;-64
2023/03/29 02:04:28;;;;;;;12.80;4.53;;;;;;;-147.16;62.37;78635.66;5079078;23;20208;-65
2023/03/29 02:06:56;;;;;;;12.77;4.93;;;;;;;-147.16;62.47;78631.59;5027936;23;20241;-66
2023/03/29 02:09:22;;;;;;;15.17;4.67;;;;;;;-147.16;62.55;78629.56;5038941;23;20825;-66
2023/03/29 02:11:50;;;;;;;14.40;4.77;;;;;;;-147.16;62.58;78629.56;5036681;23;20366;-65
2023/03/29 02:14:16;;;;;;;18.53;4.70;;;;;;;-147.16;62.27;78631.59;5053288;23;22850;-68
2023/03/29 02:16:45;;;;;;;19.03;5.47;;;;;;;-147.16;62.69;78643.75;5058830;23;21572;-64
2023/03/29 02:19:12;;;;;;;30.77;9.00;;;;;;;-147.16;62.95;78637.69;5047656;23;20286;-65
2023/03/29 02:22:02;;;;;;;54.97;12.77;;;;;;;-147.16;63.07;78653.88;5061857;23;20373;-65
2023/03/29 02:24:31;;;;;;;37.37;10.30;;;;;;;-147.16;63.36;78651.84;5064710;23;20294;-66
2023/03/29 02:26:58;;;;;;;34.63;9.80;;;;;;;-147.16;63.68;78655.91;5066094;23;20215;-66
2023/03/29 02:29:25;;;;;;;33.27;8.73;;;;;;;-147.16;63.80;78651.84;5068138;23;20385;-65
2023/03/29 02:31:59;;;;;;;38.47;12.13;;;;;;;-147.16;63.99;78661.97;5060035;23;20204;-64
2023/03/29 02:34:29;;;;;;;29.73;8.93;;;;;;;-147.16;64.35;78666.03;5031852;23;22901;-65
2023/03/29 02:36:58;;;;;;;24.57;7.93;;;;;;;-147.16;64.43;78659.97;5049134;23;21893;-66
2023/03/29 02:39:27;;;;;;;19.93;7.57;;;;;;;-147.16;64.46;78668.06;5042675;23;20204;-65
2023/03/29 02:41:53;;;;;;;24.10;8.47;;;;;;;-147.16;64.49;78639.72;5053325;23;20211;-66
2023/03/29 02:44:24;;;;;;;21.40;8.30;;;;;;;-147.16;64.68;78653.88;5040560;23;20373;-65
2023/03/29 02:46:55;;;;;;;16.63;7.20;;;;;;;-147.16;64.96;78643.75;5062388;23;25287;-66
2023/03/29 02:49:22;;;;;;;19.73;7.10;;;;;;;-147.16;64.91;78643.75;5040205;23;22598;-66
2023/03/29 02:51:52;;;;;;;16.97;6.33;;;;;;;-147.16;64.96;78645.78;5012077;23;20205;-67
2023/03/29 02:54:21;;;;;;;15.67;6.30;;;;;;;-147.16;65.42;78661.97;5035830;23;20300;-64
2023/03/29 02:56:54;;;;;;;13.93;5.27;;;;;;;-147.16;65.82;78661.97;5056576;23;22012;-65
2023/03/29 02:59:21;;;;;;;10.70;4.80;;;;;;;-147.16;65.72;78653.88;5052187;23;21212;-64
2023/03/29 03:01:48;;;;;;;16.40;4.93;;;;;;;-147.16;66.25;78688.31;5056441;23;20208;-66
2023/03/29 03:04:17;;;;;;;17.03;5.50;;;;;;;-147.16;66.63;78680.22;5042795;23;20289;-66
2023/03/29 03:06:43;;;;;;;22.37;6.10;;;;;;;-147.16;66.61;78680.22;5065088;23;21553;-65
2023/03/29 03:09:10;;;;;;;20.03;6.67;;;;;;;-147.16;66.89;78668.06;5042167;23;20424;-66
2023/03/29 03:11:37;;;;;;;21.10;6.90;;;;;;;-147.16;66.84;78684.25;5050209;23;20213;-65
2023/03/29 03:14:04;;;;;;;17.10;6.43;;;;;;;-147.16;66.76;78684.25;5043094;23;20299;-66
2023/03/29 03:16:31;;;;;;;14.87;6.40;;;;;;;-147.16;66.94;78684.25;5052775;23;20309;-66
2023/03/29 03:18:58;;;;;;;18.77;5.83;;;;;;;-147.16;67.40;78716.69;5027707;23;20224;-66
2023/03/29 03:21:26;;;;;;;17.77;6.23;;;;;;;-147.16;68.10;78710.59;5033235;23;20316;-65
2023/03/29 03:23:54;;;;;;;18.03;6.03;;;;;;;-147.16;68.72;78718.69;5037677;23;20979;-65
2023/03/29 03:26:22;;;;;;;19.53;7.27;;;;;;;-147.16;69.13;78720.72;5039762;23;20215;-66
2023/03/29 03:28:48;;;;;;;21.93;7.40;;;;;;;-147.16;69.32;78724.78;5040028;23;20705;-68
2023/03/29 03:31:16;;;;;;;19.03;6.67;;;;;;;-147.16;69.55;78722.75;5043273;23;21198;-67
2023/03/29 03:33:43;;;;;;;17.50;6.60;;;;;;;-147.16;69.87;78706.53;5042740;23;20569;-65
2023/03/29 03:36:10;;;;;;;22.47;7.10;;;;;;;-147.16;69.81;78708.56;5042343;23;20204;-63
2023/03/29 03:38:37;;;;;;;21.33;7.43;;;;;;;-147.16;70.27;78716.69;5042187;23;20209;-66
2023/03/29 03:41:05;;;;;;;22.07;7.53;;;;;;;-147.16;70.54;78716.69;5043114;23;25623;-64
2023/03/29 03:43:33;;;;;;;26.23;7.93;;;;;;;-147.16;70.86;78728.81;5043681;23;20215;-65
2023/03/29 03:46:00;;;;;;;21.73;7.77;;;;;;;-147.16;70.90;78728.81;5034561;23;21888;-67
2023/03/29 03:48:27;;;;;;;21.83;7.70;;;;;;;-147.16;70.74;78716.69;5040624;23;20205;-66
2023/03/29 03:50:55;;;;;;;22.13;7.10;;;;;;;-147.16;70.82;78710.59;5024985;23;20205;-66
2023/03/29 03:53:23;;;;;;;20.50;7.10;;;;;;;-147.16;70.67;78716.69;5036400;23;20720;-65
2023/03/29 03:55:52;;;;;;;20.17;6.93;;;;;;;-147.16;71.50;78736.94;5048243;23;20215;-65
2023/03/29 03:58:18;;;;;;;26.13;7.13;;;;;;;-147.16;71.80;78726.81;5044184;23;20640;-67
2023/03/29 04:00:49;;;;;;;18.60;6.27;;;;;;;-147.16;71.85;78732.88;5022210;23;20205;-66
2023/03/29 04:03:16;;;;;;;18.83;7.20;;;;;;;-147.16;71.95;78730.84;5032452;23;20249;-66
2023/03/29 04:05:44;;;;;;;17.80;7.20;;;;;;;-147.16;72.19;78734.91;5050150;23;20205;-65
2023/03/29 04:08:11;;;;;;;17.87;6.23;;;;;;;-147.16;72.45;78751.09;5037025;23;20210;-64
2023/03/29 04:10:39;;;;;;;17.30;6.37;;;;;;;-147.16;72.50;78736.94;5030205;23;21148;-66
2023/03/29 04:13:06;;;;;;;18.90;6.83;;;;;;;-147.16;72.80;78740.97;5051782;23;20278;-64
2023/03/29 04:15:37;;;;;;;21.97;7.70;;;;;;;-147.16;73.10;78743.00;5045898;23;20212;-65
2023/03/29 04:18:06;;;;;;;20.27;6.87;;;;;;;-147.16;73.45;78747.06;5047072;23;20209;-67
2023/03/29 04:20:33;;;;;;;24.73;7.60;;;;;;;-147.16;73.05;78759.22;5023190;23;20220;-65
2023/03/29 04:22:59;;;;;;;20.37;6.60;;;;;;;-147.16;73.74;78749.09;5045469;23;20341;-65
2023/03/29 04:25:26;;;;;;;14.13;5.73;;;;;;;-147.16;73.75;78757.19;5037482;23;20220;-65
2023/03/29 04:27:53;;;;;;;18.30;6.60;;;;;;;-147.16;74.17;78757.19;5038243;23;21077;-66
2023/03/29 04:30:19;;;;;;;15.90;6.83;;;;;;;-147.16;73.91;78763.25;5038824;23;20306;-66
2023/03/29 04:32:46;;;;;;;23.50;7.53;;;;;;;-147.16;74.13;78761.25;5036801;23;20449;-65
2023/03/29 04:35:13;;;;;;;23.67;7.47;;;;;;;-147.16;74.21;78765.28;5036097;23;22183;-64
2023/03/29 04:37:40;;;;;;;22.50;7.50;;;;;;;-147.16;74.25;78769.34;5070976;23;20629;-66
2023/03/29 04:40:08;;;;;;;18.20;7.20;;;;;;;-147.16;74.35;78753.13;5063880;23;20718;-64
2023/03/29 04:42:36;;;;;;;22.20;7.83;;;;;;;-147.16;74.67;78753.13;5068290;23;20212;-64
2023/03/29 04:45:05;;;;;;;23.47;8.40;;;;;;;-147.16;74.76;78747.06;5061846;23;20210;-66
2023/03/29 04:47:35;;;;;;;28.40;8.30;;;;;;;-147.16;74.56;78734.91;5079246;23;20323;-66
2023/03/29 04:50:03;;;;;;;39.07;8.20;;;;;;;-147.16;74.71;78732.88;5069553;23;23420;-65
2023/03/29 04:52:31;;;;;;;19.60;8.03;;;;;;;-147.16;74.75;78732.88;5074153;23;23564;-66
2023/03/29 04:55:00;;;;;;;19.90;8.90;;;;;;;-147.16;74.46;78728.81;5041133;23;20204;-67
2023/03/29 04:57:27;;;;;;;23.93;8.93;;;;;;;-147.16;74.61;78730.84;5065556;23;20736;-67
2023/03/29 04:59:55;;;;;;;19.97;8.27;;;;;;;-147.16;74.51;78716.69;5066665;23;21962;-67
2023/03/29 05:02:22;;;;;;;21.67;7.87;;;;;;;-147.16;74.46;78732.88;5048413;23;20260;-66
2023/03/29 05:04:49;;;;;;;19.43;6.40;;;;;;;-147.16;74.41;78714.66;5055665;23;21722;-65
2023/03/29 05:07:17;;;;;;;21.27;6.90;;;;;;;-147.16;74.18;78700.47;5075988;23;21210;-65
2023/03/29 05:09:43;;;;;;;19.93;7.53;;;;;;;-147.16;74.01;78708.56;5063535;23;20365;-67
2023/03/29 05:12:10;;;;;;;27.90;7.57;;;;;;;-147.16;74.01;78712.63;5067918;23;21733;-68
2023/03/29 05:14:37;;;;;;;19.03;7.63;;;;;;;-147.16;74.39;78686.28;5050904;23;20378;-66
2023/03/29 05:17:04;;;;;;;21.17;7.30;;;;;;;-147.16;74.17;78696.41;5074075;23;20220;-67
2023/03/29 05:19:30;;;;;;;26.07;7.70;;;;;;;-147.16;74.17;78692.38;5078161;23;20213;-67
2023/03/29 05:21:57;;;;;;;19.67;7.83;;;;;;;-147.16;74.06;78678.19;5054348;23;22172;-65
2023/03/29 05:24:24;;;;;;;21.47;8.30;;;;;;;-147.16;74.10;78651.84;5065209;23;20225;-69
2023/03/29 05:26:51;;;;;;;19.60;7.80;;;;;;;-147.16;74.20;78643.75;5065948;23;20277;-65
2023/03/29 05:29:18;;;;;;;21.03;7.60;;;;;;;-147.16;73.59;78641.72;5055991;23;23742;-68
2023/03/29 05:31:45;;;;;;;19.83;7.67;;;;;;;-147.16;73.57;78643.75;5070886;23;20204;-66
2023/03/29 05:34:12;;;;;;;21.73;7.90;;;;;;;-147.16;73.63;78631.59;5074990;23;20323;-64
2023/03/29 05:36:39;;;;;;;23.27;8.37;;;;;;;-147.16;73.44;78629.56;5054908;23;20268;-66
2023/03/29 05:39:06;;;;;;;25.20;7.23;;;;;;;-147.16;73.09;78625.53;5056755;23;20211;-64
2023/03/29 05:41:33;;;;;;;18.40;7.37;;;;;;;-147.16;72.88;78605.28;5065066;23;20204;-66
2023/03/29 05:43:59;;;;;;;25.63;8.63;;;;;;;-147.16;72.09;78583.00;5061673;23;21565;-67
2023/03/29 05:46:26;;;;;;;27.57;8.47;;;;;;;-147.16;71.96;78583.00;5049700;23;20210;-66
2023/03/29 05:48:53;;;;;;;25.37;8.23;;;;;;;-147.16;71.90;78572.88;5060075;23;20204;-66
2023/03/29 05:51:23;;;;;;;22.50;8.17;;;;;;;-147.16;71.52;78568.81;5072556;23;20204;-68
2023/03/29 05:53:50;;;;;;;24.53;8.37;;;;;;;-147.16;71.44;78564.75;5033505;23;20214;-65
2023/03/29 05:56:17;;;;;;;19.97;8.30;;;;;;;-147.16;71.20;78536.41;5081838;23;20208;-66
2023/03/29 05:58:49;;;;;;;17.57;6.73;;;;;;;-147.16;70.57;78518.19;5055350;23;20212;-72
2023/03/29 06:01:17;;;;;;;19.50;6.97;;;;;;;-147.16;69.89;78518.19;5062280;23;20519;-63
2023/03/29 06:03:47;;;;;;;16.67;6.20;;;;;;;-147.16;70.12;78487.78;5076109;23;20204;-63
2023/03/29 06:06:15;;;;;;;14.53;6.33;;;;;;;-147.16;69.26;78489.81;5054970;23;25267;-63
2023/03/29 06:08:42;;;;;;;15.17;5.50;;;;;;;-147.16;68.86;78465.50;5072223;23;20219;-64
2023/03/29 06:11:10;;;;;;;14.83;4.90;;;;;;;-147.16;68.33;78471.59;5057072;23;20227;-64
2023/03/29 06:13:37;;;;;;;16.40;4.77;;;;;;;-147.16;67.90;78455.38;5064035;23;20208;-66
2023/03/29 06:16:05;;;;;;;15.70;5.40;;;;;;;-147.16;67.55;78453.38;5047698;23;20376;-64
2023/03/29 06:18:32;;;;;;;19.80;5.20;;;;;;;-147.16;67.50;78445.25;5047290;23;21768;-66
2023/03/29 06:21:01;;;;;;;16.80;4.90;;;;;;;-147.16;67.14;78441.22;5043172;23;21141;-65
2023/03/29 06:23:29;;;;;;;11.93;4.60;;;;;;;-147.16;67.11;78437.16;5044486;23;20319;-66
2023/03/29 06:25:56;;;;;;;17.97;5.37;;;;;;;-147.16;67.15;78410.84;5035902;23;20412;-66
2023/03/29 06:28:23;;;;;;;12.60;5.20;;;;;;;-147.16;66.96;78388.56;5048956;23;20578;-64
2023/03/29 06:30:52;;;;;;;12.20;5.13;;;;;;;-147.16;66.28;78392.59;5020255;23;20207;-65
2023/03/29 06:33:19;;;;;;;18.40;5.53;;;;;;;-147.16;66.24;78388.56;5071555;23;20260;-66
2023/03/29 06:35:47;;;;;;;20.10;4.90;;;;;;;-147.16;66.12;78374.38;5040781;23;20200;-64
2023/03/29 06:38:14;;;;;;;10.67;3.97;;;;;;;-147.16;64.69;78339.94;5062722;23;20231;-63
2023/03/29 06:40:43;;;;;;;13.90;4.80;;;;;;;-147.16;64.36;78323.75;5025293;23;20237;-65
2023/03/29 06:43:10;;;;;;;16.37;4.60;;;;;;;-147.16;64.29;78319.69;5029481;23;20977;-66
2023/03/29 06:45:37;;;;;;;15.83;4.90;;;;;;;-147.16;64.30;78337.91;5016347;23;20222;-66
2023/03/29 06:48:06;;;;;;;17.73;5.33;;;;;;;-147.16;64.06;78333.88;5011419;23;20378;-66
2023/03/29 06:50:34;;;;;;;15.93;4.60;;;;;;;-147.16;64.55;78327.78;5031361;23;20254;-67
2023/03/29 06:53:02;;;;;;;13.03;4.00;;;;;;;-147.16;63.76;78309.56;5050482;23;20377;-66
2023/03/29 06:55:30;;;;;;;13.33;4.60;;;;;;;-147.16;63.26;78303.47;5046052;23;25137;-67
2023/03/29 06:57:57;;;;;;;10.57;4.60;;;;;;;-147.16;63.18;78297.41;5022306;23;20284;-65
2023/03/29 07:00:27;;;;;;;11.67;5.40;;;;;;;-147.16;63.87;78291.34;5021192;23;20231;-69
2023/03/29 07:02:55;;;;;;;15.97;5.73;;;;;;;-147.16;63.46;78273.09;4999882;23;21500;-64
2023/03/29 07:05:22;;;;;;;14.00;4.83;;;;;;;-147.16;62.99;78254.88;5020525;23;20215;-63
2023/03/29 07:07:53;;;;;;;14.73;5.17;;;;;;;-147.16;62.88;78252.84;4999219;23;20216;-65
2023/03/29 07:10:31;;;;;;;14.73;5.07;;;;;;;-147.16;63.05;78240.69;5018530;23;20569;-65
2023/03/29 07:13:04;;;;;;;13.87;5.57;;;;;;;-147.16;61.58;78153.63;5008525;23;20215;-66
2023/03/29 07:15:32;;;;;;;14.57;4.77;;;;;;;-147.16;59.84;78105.00;5045933;23;20634;-68
2023/03/29 07:18:00;;;;;;;14.53;5.13;;;;;;;-147.16;55.63;77882.25;5056853;23;20210;-66
2023/03/29 07:20:28;;;;;;;9.47;4.47;;;;;;;-147.16;47.87;77572.41;5089549;23;20683;-68
2023/03/29 07:22:56;;;;;;;9.33;3.83;;;;;;;-147.16;41.72;77376.00;5105624;23;20385;-68
2023/03/29 07:25:24;;;;;;;8.73;3.97;;;;;;;-147.16;40.12;77256.53;5090421;23;20219;-65
2023/03/29 07:27:53;;;;;;;8.97;3.90;;;;;;;-147.16;36.50;77076.31;5037950;23;20206;-70
2023/03/29 07:30:22;;;;;;;13.07;4.53;;;;;;;-147.16;35.48;76954.84;5125608;23;20462;-67
2023/03/29 07:32:51;;;;;;;12.17;4.20;;;;;;;-147.16;31.87;76853.63;5071937;23;21432;-64
2023/03/29 07:35:18;;;;;;;10.10;3.80;;;;;;;-147.16;32.27;76926.50;5094777;23;20210;-68
2023/03/29 07:37:45;;;;;;;8.37;3.10;;;;;;;-147.16;32.39;76867.78;5094684;23;21736;-66
2023/03/29 07:40:23;;;;;;;12.37;4.40;;;;;;;-147.16;31.86;76879.94;5095477;23;20210;-64
2023/03/29 07:42:52;;;;;;;11.33;4.13;;;;;;;-147.16;32.25;76881.97;5045814;23;20222;-65
2023/03/29 07:45:24;;;;;;;14.70;4.10;;;;;;;-147.16;31.71;76902.19;5061204;23;20718;-64
2023/03/29 07:47:57;;;;;;;12.73;4.30;;;;;;;-147.16;30.61;76803.00;5114731;23;20644;-63
2023/03/29 07:50:25;;;;;;;12.47;3.97;;;;;;;-147.16;31.30;76827.28;5075990;23;21287;-66
2023/03/29 07:52:52;;;;;;;12.73;4.10;;;;;;;-147.16;31.33;76890.06;5070075;23;22959;-66
2023/03/29 07:55:20;;;;;;;11.90;3.50;;;;;;;-147.16;31.10;76788.81;5092405;23;21663;-68
2023/03/29 07:57:48;;;;;;;8.10;3.90;;;;;;;-147.16;30.13;76770.59;5085968;23;20984;-69
2023/03/29 08:00:15;;;;;;;9.33;3.77;;;;;;;-147.16;28.94;76641.03;5068746;23;20203;-69
2023/03/29 08:02:43;;;;;;;13.07;4.70;;;;;;;-147.16;28.41;76626.88;5089513;23;20211;-68
2023/03/29 08:05:12;;;;;;;11.47;3.83;;;;;;;-147.16;28.46;76671.41;5077298;23;21722;-67
2023/03/29 08:07:40;;;;;;;11.33;4.10;;;;;;;-147.16;27.68;76551.97;5080578;23;20200;-68
2023/03/29 08:10:09;;;;;;;12.40;4.10;;;;;;;-147.16;27.82;76651.16;5086882;23;21396;-69
2023/03/29 08:12:36;;;;;;;8.80;3.60;;;;;;;-147.16;27.91;76649.13;5092111;23;22307;-68
2023/03/29 08:15:07;;;;;;;10.30;3.73;;;;;;;-147.16;27.38;76558.03;5122029;23;21204;-68
2023/03/29 08:17:35;;;;;;;6.80;3.17;;;;;;;-147.16;27.35;76558.03;5086746;23;20207;-68
2023/03/29 08:20:06;;;;;;;11.03;3.53;;;;;;;-147.16;27.49;76647.09;5029468;23;20287;-68
2023/03/29 08:22:33;;;;;;;9.40;3.47;;;;;;;-147.16;28.15;76736.19;5039710;23;20652;-69
2023/03/29 08:25:01;;;;;;;6.73;3.30;;;;;;;-147.16;27.30;76586.38;5045785;23;20210;-67
2023/03/29 08:27:29;;;;;;;8.37;3.30;;;;;;;-147.16;27.17;76592.44;5035878;23;20267;-67
2023/03/29 08:29:55;;;;;;;10.83;3.30;;;;;;;-147.16;29.44;76863.72;5026758;23;20748;-67
2023/03/29 08:32:22;;;;;;;8.67;3.33;;;;;;;-147.16;30.38;76977.13;5053130;23;20281;-66
2023/03/29 08:34:49;;;;;;;9.03;2.87;;;;;;;-147.16;32.32;77191.72;5044422;23;20912;-67
2023/03/29 08:37:16;;;;;;;6.83;2.93;;;;;;;-147.16;34.35;77353.72;5078318;23;20217;-68
2023/03/29 08:39:42;;;;;;;6.23;2.93;;;;;;;-147.16;35.45;77398.25;5062607;23;25512;-69
2023/03/29 08:42:09;;;;;;;5.37;2.33;;;;;;;-147.16;36.08;77479.25;5059018;23;20257;-69
2023/03/29 08:44:48;;;;;;;6.13;2.30;;;;;;;-147.16;35.69;77477.25;5079958;23;20466;-69
2023/03/29 08:47:20;;;;;;;9.77;2.90;;;;;;;-147.16;36.02;77461.03;5092073;23;21511;-58
2023/03/29 08:49:49;;;;;;;7.90;3.63;;;;;;;-147.16;37.20;77477.25;5083444;23;23028;-68
2023/03/29 08:52:40;;;;;;;7.50;3.07;;;;;;;-147.16;35.15;77485.34;5077630;23;20288;-67
2023/03/29 08:55:16;;;;;;;8.83;2.97;;;;;;;-147.16;34.08;77493.44;5036717;23;20628;-68
2023/03/29 08:57:46;;;;;;;7.70;2.47;;;;;;;-147.16;34.28;77517.72;5109211;23;21819;-66
2023/03/29 09:00:33;;;;;;;9.17;2.57;;;;;;;-147.16;33.96;77548.09;5086535;23;21717;-66
2023/03/29 09:03:01;;;;;;;5.13;2.70;;;;;;;-147.16;33.52;77558.22;5078787;23;21171;-67
2023/03/29 09:05:37;;;;;;;11.97;2.50;;;;;;;-147.16;33.24;77596.72;5053882;23;20352;-67
2023/03/29 09:08:12;;;;;;;5.10;2.00;;;;;;;-147.16;32.89;77582.53;5091299;23;20219;-61
2023/03/29 09:10:46;;;;;;;3.80;1.73;;;;;;;-147.16;32.60;77554.19;5036810;23;21796;-58
2023/03/29 09:13:50;;;;;;;8.27;1.73;;;;;;;-147.16;32.43;77566.34;5036968;23;21512;-58
2023/03/29 09:16:52;;;;;;;4.53;1.83;;;;;;;-147.16;31.18;77596.72;5020564;23;20662;-65
2023/03/29 09:19:30;;;;;;;5.53;1.70;;;;;;;-147.16;31.25;77578.47;5068303;23;20208;-66
2023/03/29 09:22:15;;;;;;;5.47;1.70;;;;;;;-147.16;30.23;77568.34;5053889;23;20201;-67
2023/03/29 09:24:56;;;;;;;3.97;1.37;;;;;;;-147.16;30.26;77612.91;5073724;23;20294;-64
2023/03/29 09:27:26;;;;;;;9.27;1.50;;;;;;;-147.16;30.24;77604.81;5058070;23;20269;-67
2023/03/29 09:30:09;;;;;;;4.33;1.80;;;;;;;-147.16;30.36;77570.38;5026840;23;20363;-63
2023/03/29 09:32:43;;;;;;;2.93;1.50;;;;;;;-147.16;29.53;77552.16;5059113;23;20206;-64
2023/03/29 09:35:17;;;;;;;4.33;1.60;;;;;;;-147.16;29.06;77517.72;5054948;23;20203;-62
2023/03/29 09:37:45;;;;;;;3.67;1.50;;;;;;;-147.16;28.43;77578.47;5051432;23;20606;-64
2023/03/29 09:40:16;;;;;;;3.87;1.40;;;;;;;-147.16;28.54;77663.53;5047383;23;20207;-64
2023/03/29 09:42:44;;;;;;;4.03;1.43;;;;;;;-147.16;27.94;77653.41;5081494;23;20303;-62
2023/03/29 09:45:11;;;;;;;3.77;1.50;;;;;;;-147.16;29.20;77679.72;5057702;23;20215;-63
2023/03/29 09:47:43;;;;;;;4.03;1.77;;;;;;;-147.16;29.34;77697.97;5051291;23;21119;-63
2023/03/29 09:50:15;;;;;;;4.90;1.40;;;;;;;-147.16;28.50;77671.63;5060023;23;22212;-64
2023/03/29 09:52:56;;;;;;;6.50;1.80;;;;;;;-147.16;28.09;77645.31;5028848;23;21376;-63
2023/03/29 09:55:26;;;;;;;6.97;2.90;;;;;;;-147.16;28.48;77635.19;5072203;23;21024;-64
2023/03/29 09:57:55;;;;;;;6.40;2.10;;;;;;;-147.16;28.65;77621.00;5046102;23;22356;-63
2023/03/29 10:00:21;;;;;;;7.30;2.27;;;;;;;-147.16;27.91;77606.84;5043089;23;20279;-64
2023/03/29 10:02:56;;;;;;;4.23;2.17;;;;;;;-147.16;28.62;77643.28;5060526;23;20283;-65
2023/03/29 10:05:24;;;;;;;3.13;1.60;;;;;;;-147.16;28.82;77643.28;5040960;23;20616;-65
2023/03/29 10:07:54;;;;;;;4.83;1.90;;;;;;;-147.16;28.69;77643.28;5010978;23;20270;-66
2023/03/29 10:10:28;;;;;;;5.43;2.03;;;;;;;-147.16;29.08;77627.09;5033361;23;20276;-65
2023/03/29 10:13:03;;;;;;;5.33;1.77;;;;;;;-147.16;28.31;77610.88;5046471;23;20204;-66
2023/03/29 10:15:30;;;;;;;7.27;1.90;;;;;;;-147.16;28.39;77635.19;5043641;23;20208;-63
2023/03/29 10:18:04;;;;;;;5.77;2.60;;;;;;;-147.16;28.46;77623.03;5069707;23;20946;-66
2023/03/29 10:20:35;;;;;;;5.13;2.23;;;;;;;-147.16;29.21;77610.88;5041670;23;20365;-66
2023/03/29 10:23:05;;;;;;;8.40;3.07;;;;;;;-147.16;28.61;77602.78;5054716;23;21853;-66
2023/03/29 10:25:33;;;;;;;10.47;2.10;;;;;;;-147.16;28.46;77612.91;5041529;23;21707;-67
2023/03/29 10:28:10;;;;;;;6.57;2.60;;;;;;;-147.16;29.08;77618.97;5047648;23;20264;-66
2023/03/29 10:30:37;;;;;;;5.03;2.20;;;;;;;-147.16;29.46;77627.09;5059702;23;20255;-65
2023/03/29 10:33:06;;;;;;;3.90;2.23;;;;;;;-147.16;29.78;77631.13;5066111;23;20438;-65
2023/03/29 10:35:40;;;;;;;4.53;1.90;;;;;;;-147.16;30.22;77627.09;5065393;23;20786;-65
2023/03/29 10:38:13;;;;;;;5.20;2.30;;;;;;;-147.16;30.31;77606.84;5052768;23;20293;-66
2023/03/29 10:40:42;;;;;;;5.37;2.30;;;;;;;-147.16;30.42;77627.09;5063398;23;20205;-66
2023/03/29 10:43:18;;;;;;;5.67;2.20;;;;;;;-147.16;31.15;77616.97;5053833;23;25319;-52
2023/03/29 10:45:50;;;;;;;6.63;2.27;;;;;;;-147.16;30.36;77588.59;5066059;23;20212;-65
2023/03/29 10:48:18;;;;;;;5.33;2.50;;;;;;;-147.16;31.61;77554.19;5039596;23;21414;-64
2023/03/29 10:50:49;;;;;;;3.90;1.87;;;;;;;-147.16;30.68;77546.09;5038950;23;20225;-68
2023/03/29 10:53:33;;;;;;;4.43;2.03;;;;;;;-147.16;30.97;77590.63;5061703;23;20223;-66
2023/03/29 10:56:28;;;;;;;5.70;2.40;;;;;;;-147.16;31.27;77616.97;5056858;23;20211;-64
2023/03/29 10:59:13;;;;;;;6.20;2.20;;;;;;;-147.16;31.25;77596.72;5082161;23;20252;-67
2023/03/29 11:01:45;;;;;;;5.80;2.03;;;;;;;-147.16;32.44;77574.44;5043631;23;23090;-67
2023/03/29 11:04:38;;;;;;;6.77;2.40;;;;;;;-147.16;31.89;77527.84;5064913;23;20201;-68
2023/03/29 11:07:31;;;;;;;6.60;2.17;;;;;;;-147.16;31.22;77529.88;5076194;23;20326;-68
2023/03/29 11:10:18;;;;;;;4.60;1.80;;;;;;;-147.16;30.47;77570.38;5034570;23;20209;-66
2023/03/29 11:13:07;;;;;;;4.03;1.73;;;;;;;-147.16;30.28;77566.34;5059406;23;23021;-66
2023/03/29 11:15:52;;;;;;;5.37;1.70;;;;;;;-147.16;30.12;77552.16;5062788;23;20498;-70
2023/03/29 11:18:58;;;;;;;8.07;1.90;;;;;;;-147.16;29.76;77523.81;5071169;23;21801;-65
2023/03/29 11:21:43;;;;;;;6.00;1.83;;;;;;;-147.16;29.82;77537.97;5095985;23;20206;-67
2023/03/29 11:24:25;;;;;;;7.50;2.60;;;;;;;-147.16;30.25;77509.63;5063451;23;20212;-67
2023/03/29 11:27:24;;;;;;;5.40;1.97;;;;;;;-147.16;29.12;77489.38;5058329;23;20329;-68
2023/03/29 11:30:26;;;;;;;4.43;1.77;;;;;;;-147.16;28.36;77507.59;5105398;23;20307;-66